sensor_id;sensor_type;location;lat;lon;timestamp;temperature;humidity
74873;HTU21D;68776;44.762;37.698;2023-08-06T00:00:20;28.80;45.84
74873;HTU21D;68776;44.762;37.698;2023-08-06T00:01:21;28.77;45.97
74873;HTU21D;68776;44.762;37.698;2023-08-06T00:02:23;28.73;46.09
74873;HTU21D;68776;44.762;37.698;2023-08-06T00:03:24;28.69;46.20
74873;HTU21D;68776;44.762;37.698;2023-08-06T00:04:25;28.65;46.26
74873;HTU21D;68776;44.762;37.698;2023-08-06T00:05:26;28.65;46.32
74873;HTU21D;68776;44.762;37.698;2023-08-06T00:06:27;28.63;46.41
74873;HTU21D;68776;44.762;37.698;2023-08-06T00:07:28;28.61;46.47
74873;HTU21D;68776;44.762;37.698;2023-08-06T00:08:29;28.57;46.57
74873;HTU21D;68776;44.762;37.698;2023-08-06T00:09:30;28.54;46.68
74873;HTU21D;68776;44.762;37.698;2023-08-06T00:10:30;28.53;46.69
74873;HTU21D;68776;44.762;37.698;2023-08-06T00:11:31;28.52;46.72
74873;HTU21D;68776;44.762;37.698;2023-08-06T00:12:32;28.53;46.70
74873;HTU21D;68776;44.762;37.698;2023-08-06T00:13:33;28.54;46.68
74873;HTU21D;68776;44.762;37.698;2023-08-06T00:14:34;28.53;46.73
74873;HTU21D;68776;44.762;37.698;2023-08-06T00:15:35;28.50;46.80
74873;HTU21D;68776;44.762;37.698;2023-08-06T00:16:36;28.48;46.85
74873;HTU21D;68776;44.762;37.698;2023-08-06T00:17:37;28.46;46.89
74873;HTU21D;68776;44.762;37.698;2023-08-06T00:18:39;28.44;46.99
74873;HTU21D;68776;44.762;37.698;2023-08-06T00:19:40;28.42;47.07
74873;HTU21D;68776;44.762;37.698;2023-08-06T00:20:41;28.41;47.17
74873;HTU21D;68776;44.762;37.698;2023-08-06T00:21:42;28.37;47.28
74873;HTU21D;68776;44.762;37.698;2023-08-06T00:22:43;28.28;47.46
74873;HTU21D;68776;44.762;37.698;2023-08-06T00:23:44;28.27;47.50
74873;HTU21D;68776;44.762;37.698;2023-08-06T00:24:45;28.25;47.56
74873;HTU21D;68776;44.762;37.698;2023-08-06T00:25:46;28.25;47.63
74873;HTU21D;68776;44.762;37.698;2023-08-06T00:26:47;28.25;47.69
74873;HTU21D;68776;44.762;37.698;2023-08-06T00:27:47;28.25;47.70
74873;HTU21D;68776;44.762;37.698;2023-08-06T00:28:49;28.23;47.73
74873;HTU21D;68776;44.762;37.698;2023-08-06T00:29:50;28.23;47.83
74873;HTU21D;68776;44.762;37.698;2023-08-06T00:30:54;28.18;47.70
74873;HTU21D;68776;44.762;37.698;2023-08-06T00:31:55;28.17;47.50
74873;HTU21D;68776;44.762;37.698;2023-08-06T00:32:56;28.15;47.31
74873;HTU21D;68776;44.762;37.698;2023-08-06T00:33:56;28.13;47.17
74873;HTU21D;68776;44.762;37.698;2023-08-06T00:34:57;28.10;47.05
74873;HTU21D;68776;44.762;37.698;2023-08-06T00:35:58;28.06;46.96
74873;HTU21D;68776;44.762;37.698;2023-08-06T00:36:59;28.02;46.89
74873;HTU21D;68776;44.762;37.698;2023-08-06T00:38:00;27.98;46.84
74873;HTU21D;68776;44.762;37.698;2023-08-06T00:39:01;27.91;46.80
74873;HTU21D;68776;44.762;37.698;2023-08-06T00:40:01;27.88;46.76
74873;HTU21D;68776;44.762;37.698;2023-08-06T00:41:02;27.84;46.71
74873;HTU21D;68776;44.762;37.698;2023-08-06T00:42:03;27.80;46.68
74873;HTU21D;68776;44.762;37.698;2023-08-06T00:43:04;27.75;46.64
74873;HTU21D;68776;44.762;37.698;2023-08-06T00:44:05;27.71;46.59
74873;HTU21D;68776;44.762;37.698;2023-08-06T00:45:07;27.68;46.55
74873;HTU21D;68776;44.762;37.698;2023-08-06T00:46:08;27.64;46.52
74873;HTU21D;68776;44.762;37.698;2023-08-06T00:47:09;27.60;46.47
74873;HTU21D;68776;44.762;37.698;2023-08-06T00:48:10;27.59;46.43
74873;HTU21D;68776;44.762;37.698;2023-08-06T00:49:11;27.55;46.51
74873;HTU21D;68776;44.762;37.698;2023-08-06T00:50:12;27.51;46.61
74873;HTU21D;68776;44.762;37.698;2023-08-06T00:51:13;27.50;47.08
74873;HTU21D;68776;44.762;37.698;2023-08-06T00:52:14;27.49;46.98
74873;HTU21D;68776;44.762;37.698;2023-08-06T00:53:15;27.49;46.84
74873;HTU21D;68776;44.762;37.698;2023-08-06T00:54:16;27.45;46.76
74873;HTU21D;68776;44.762;37.698;2023-08-06T00:55:17;27.45;46.69
74873;HTU21D;68776;44.762;37.698;2023-08-06T00:56:17;27.44;46.64
74873;HTU21D;68776;44.762;37.698;2023-08-06T00:57:19;27.41;46.60
74873;HTU21D;68776;44.762;37.698;2023-08-06T00:58:21;27.39;46.59
74873;HTU21D;68776;44.762;37.698;2023-08-06T00:59:22;27.35;46.57
74873;HTU21D;68776;44.762;37.698;2023-08-06T01:00:24;27.34;46.54
74873;HTU21D;68776;44.762;37.698;2023-08-06T01:01:25;27.30;46.52
74873;HTU21D;68776;44.762;37.698;2023-08-06T01:02:25;27.28;46.51
74873;HTU21D;68776;44.762;37.698;2023-08-06T01:03:26;27.26;46.47
74873;HTU21D;68776;44.762;37.698;2023-08-06T01:04:27;27.23;46.46
74873;HTU21D;68776;44.762;37.698;2023-08-06T01:05:28;27.21;46.46
74873;HTU21D;68776;44.762;37.698;2023-08-06T01:07:44;27.16;46.47
74873;HTU21D;68776;44.762;37.698;2023-08-06T01:08:53;27.15;46.46
74873;HTU21D;68776;44.762;37.698;2023-08-06T01:13:25;27.01;46.50
74873;HTU21D;68776;44.762;37.698;2023-08-06T01:14:28;26.98;46.51
74873;HTU21D;68776;44.762;37.698;2023-08-06T01:15:32;26.96;46.50
74873;HTU21D;68776;44.762;37.698;2023-08-06T01:16:35;26.93;46.53
74873;HTU21D;68776;44.762;37.698;2023-08-06T01:17:37;26.90;46.57
74873;HTU21D;68776;44.762;37.698;2023-08-06T01:18:38;26.84;46.60
74873;HTU21D;68776;44.762;37.698;2023-08-06T01:19:39;26.81;46.64
74873;HTU21D;68776;44.762;37.698;2023-08-06T01:20:40;26.77;46.67
74873;HTU21D;68776;44.762;37.698;2023-08-06T01:21:41;26.72;46.69
74873;HTU21D;68776;44.762;37.698;2023-08-06T01:22:41;26.70;46.70
74873;HTU21D;68776;44.762;37.698;2023-08-06T01:23:42;26.67;46.73
74873;HTU21D;68776;44.762;37.698;2023-08-06T01:24:45;26.65;46.75
74873;HTU21D;68776;44.762;37.698;2023-08-06T01:25:58;26.61;46.78
74873;HTU21D;68776;44.762;37.698;2023-08-06T01:27:14;26.56;46.80
74873;HTU21D;68776;44.762;37.698;2023-08-06T01:29:02;26.54;46.80
74873;HTU21D;68776;44.762;37.698;2023-08-06T01:29:43;26.54;46.73
74873;HTU21D;68776;44.762;37.698;2023-08-06T01:30:45;26.52;46.70
74873;HTU21D;68776;44.762;37.698;2023-08-06T01:31:48;26.53;46.70
74873;HTU21D;68776;44.762;37.698;2023-08-06T01:32:49;26.51;46.68
74873;HTU21D;68776;44.762;37.698;2023-08-06T01:33:52;26.49;46.67
74873;HTU21D;68776;44.762;37.698;2023-08-06T01:34:53;26.49;46.66
74873;HTU21D;68776;44.762;37.698;2023-08-06T01:35:55;26.46;46.68
74873;HTU21D;68776;44.762;37.698;2023-08-06T01:36:56;26.43;46.73
74873;HTU21D;68776;44.762;37.698;2023-08-06T01:37:57;26.40;46.76
74873;HTU21D;68776;44.762;37.698;2023-08-06T01:38:58;26.38;46.77
74873;HTU21D;68776;44.762;37.698;2023-08-06T01:40:00;26.37;46.78
74873;HTU21D;68776;44.762;37.698;2023-08-06T01:41:00;26.35;46.78
74873;HTU21D;68776;44.762;37.698;2023-08-06T01:42:01;26.33;46.77
74873;HTU21D;68776;44.762;37.698;2023-08-06T01:43:02;26.33;46.77
74873;HTU21D;68776;44.762;37.698;2023-08-06T01:44:03;26.31;46.79
74873;HTU21D;68776;44.762;37.698;2023-08-06T01:45:06;26.26;46.84
74873;HTU21D;68776;44.762;37.698;2023-08-06T01:46:07;26.21;46.89
74873;HTU21D;68776;44.762;37.698;2023-08-06T01:47:08;26.21;46.89
74873;HTU21D;68776;44.762;37.698;2023-08-06T01:48:08;26.18;46.92
74873;HTU21D;68776;44.762;37.698;2023-08-06T01:49:09;26.17;46.94
74873;HTU21D;68776;44.762;37.698;2023-08-06T01:50:10;26.16;46.93
74873;HTU21D;68776;44.762;37.698;2023-08-06T01:51:11;26.13;46.95
74873;HTU21D;68776;44.762;37.698;2023-08-06T01:52:12;26.10;46.96
74873;HTU21D;68776;44.762;37.698;2023-08-06T01:53:13;26.07;46.99
74873;HTU21D;68776;44.762;37.698;2023-08-06T01:54:14;26.06;47.02
74873;HTU21D;68776;44.762;37.698;2023-08-06T01:55:14;26.03;47.03
74873;HTU21D;68776;44.762;37.698;2023-08-06T01:56:15;25.99;47.06
74873;HTU21D;68776;44.762;37.698;2023-08-06T01:57:16;25.96;47.08
74873;HTU21D;68776;44.762;37.698;2023-08-06T01:58:17;25.96;47.09
74873;HTU21D;68776;44.762;37.698;2023-08-06T01:59:18;25.91;47.11
74873;HTU21D;68776;44.762;37.698;2023-08-06T02:00:19;25.91;47.12
74873;HTU21D;68776;44.762;37.698;2023-08-06T02:01:21;25.88;47.15
74873;HTU21D;68776;44.762;37.698;2023-08-06T02:02:22;25.84;47.18
74873;HTU21D;68776;44.762;37.698;2023-08-06T02:03:22;25.83;47.21
74873;HTU21D;68776;44.762;37.698;2023-08-06T02:04:23;25.81;47.22
74873;HTU21D;68776;44.762;37.698;2023-08-06T02:05:24;25.78;47.22
74873;HTU21D;68776;44.762;37.698;2023-08-06T02:06:25;25.77;47.23
74873;HTU21D;68776;44.762;37.698;2023-08-06T02:07:26;25.75;47.25
74873;HTU21D;68776;44.762;37.698;2023-08-06T02:08:27;25.73;47.25
74873;HTU21D;68776;44.762;37.698;2023-08-06T02:09:28;25.71;47.25
74873;HTU21D;68776;44.762;37.698;2023-08-06T02:10:28;25.69;47.27
74873;HTU21D;68776;44.762;37.698;2023-08-06T02:11:29;25.68;47.28
74873;HTU21D;68776;44.762;37.698;2023-08-06T02:12:30;25.68;47.28
74873;HTU21D;68776;44.762;37.698;2023-08-06T02:13:31;25.66;47.28
74873;HTU21D;68776;44.762;37.698;2023-08-06T02:14:32;25.65;47.27
74873;HTU21D;68776;44.762;37.698;2023-08-06T02:15:34;25.64;47.27
74873;HTU21D;68776;44.762;37.698;2023-08-06T02:16:34;25.62;47.28
74873;HTU21D;68776;44.762;37.698;2023-08-06T02:17:36;25.62;47.28
74873;HTU21D;68776;44.762;37.698;2023-08-06T02:18:37;25.61;47.28
74873;HTU21D;68776;44.762;37.698;2023-08-06T02:19:38;25.60;47.29
74873;HTU21D;68776;44.762;37.698;2023-08-06T02:20:39;25.59;47.28
74873;HTU21D;68776;44.762;37.698;2023-08-06T02:21:39;25.59;47.28
74873;HTU21D;68776;44.762;37.698;2023-08-06T02:22:40;25.56;47.28
74873;HTU21D;68776;44.762;37.698;2023-08-06T02:23:43;25.56;47.30
74873;HTU21D;68776;44.762;37.698;2023-08-06T02:24:44;25.56;47.31
74873;HTU21D;68776;44.762;37.698;2023-08-06T02:25:45;25.53;47.31
74873;HTU21D;68776;44.762;37.698;2023-08-06T02:26:45;25.52;47.32
74873;HTU21D;68776;44.762;37.698;2023-08-06T02:27:48;25.51;47.34
74873;HTU21D;68776;44.762;37.698;2023-08-06T02:28:49;25.49;47.35
74873;HTU21D;68776;44.762;37.698;2023-08-06T02:29:49;25.49;47.34
74873;HTU21D;68776;44.762;37.698;2023-08-06T02:30:51;25.48;47.35
74873;HTU21D;68776;44.762;37.698;2023-08-06T02:31:51;25.48;47.36
74873;HTU21D;68776;44.762;37.698;2023-08-06T02:32:52;25.49;47.34
74873;HTU21D;68776;44.762;37.698;2023-08-06T02:33:53;25.48;47.35
74873;HTU21D;68776;44.762;37.698;2023-08-06T02:34:54;25.47;47.35
74873;HTU21D;68776;44.762;37.698;2023-08-06T02:36:01;25.46;47.36
74873;HTU21D;68776;44.762;37.698;2023-08-06T02:37:04;25.46;47.36
74873;HTU21D;68776;44.762;37.698;2023-08-06T02:38:04;25.45;47.37
74873;HTU21D;68776;44.762;37.698;2023-08-06T02:39:05;25.44;47.38
74873;HTU21D;68776;44.762;37.698;2023-08-06T02:40:06;25.43;47.38
74873;HTU21D;68776;44.762;37.698;2023-08-06T02:41:07;25.43;47.41
74873;HTU21D;68776;44.762;37.698;2023-08-06T02:42:08;25.42;47.43
74873;HTU21D;68776;44.762;37.698;2023-08-06T02:43:09;25.39;47.44
74873;HTU21D;68776;44.762;37.698;2023-08-06T02:44:10;25.38;47.44
74873;HTU21D;68776;44.762;37.698;2023-08-06T02:45:11;25.37;47.46
74873;HTU21D;68776;44.762;37.698;2023-08-06T02:46:11;25.37;47.47
74873;HTU21D;68776;44.762;37.698;2023-08-06T02:47:12;25.35;47.47
74873;HTU21D;68776;44.762;37.698;2023-08-06T02:48:13;25.35;47.49
74873;HTU21D;68776;44.762;37.698;2023-08-06T02:49:14;25.36;47.48
74873;HTU21D;68776;44.762;37.698;2023-08-06T02:50:14;25.34;47.49
74873;HTU21D;68776;44.762;37.698;2023-08-06T02:51:15;25.34;47.49
74873;HTU21D;68776;44.762;37.698;2023-08-06T02:52:16;25.34;47.48
74873;HTU21D;68776;44.762;37.698;2023-08-06T02:53:17;25.33;47.48
74873;HTU21D;68776;44.762;37.698;2023-08-06T02:54:19;25.34;47.47
74873;HTU21D;68776;44.762;37.698;2023-08-06T02:55:20;25.33;47.47
74873;HTU21D;68776;44.762;37.698;2023-08-06T02:56:22;25.34;47.47
74873;HTU21D;68776;44.762;37.698;2023-08-06T02:57:35;25.34;47.47
74873;HTU21D;68776;44.762;37.698;2023-08-06T02:58:36;25.35;47.44
74873;HTU21D;68776;44.762;37.698;2023-08-06T02:59:44;25.37;47.41
74873;HTU21D;68776;44.762;37.698;2023-08-06T03:01:02;25.37;47.38
74873;HTU21D;68776;44.762;37.698;2023-08-06T03:02:04;25.39;47.36
74873;HTU21D;68776;44.762;37.698;2023-08-06T03:03:23;25.43;47.31
74873;HTU21D;68776;44.762;37.698;2023-08-06T03:04:30;25.43;47.29
74873;HTU21D;68776;44.762;37.698;2023-08-06T03:05:30;25.46;47.28
74873;HTU21D;68776;44.762;37.698;2023-08-06T03:06:31;25.46;47.27
74873;HTU21D;68776;44.762;37.698;2023-08-06T03:07:34;25.48;47.25
74873;HTU21D;68776;44.762;37.698;2023-08-06T03:08:43;25.50;47.22
74873;HTU21D;68776;44.762;37.698;2023-08-06T03:09:44;25.51;47.19
74873;HTU21D;68776;44.762;37.698;2023-08-06T03:10:44;25.53;47.18
74873;HTU21D;68776;44.762;37.698;2023-08-06T03:11:46;25.56;47.15
74873;HTU21D;68776;44.762;37.698;2023-08-06T03:12:49;25.56;47.14
74873;HTU21D;68776;44.762;37.698;2023-08-06T03:13:50;25.58;47.12
74873;HTU21D;68776;44.762;37.698;2023-08-06T03:14:51;25.62;47.09
74873;HTU21D;68776;44.762;37.698;2023-08-06T03:15:55;25.63;47.07
74873;HTU21D;68776;44.762;37.698;2023-08-06T03:16:56;25.65;47.05
74873;HTU21D;68776;44.762;37.698;2023-08-06T03:17:57;25.66;47.03
74873;HTU21D;68776;44.762;37.698;2023-08-06T03:18:58;25.69;47.01
74873;HTU21D;68776;44.762;37.698;2023-08-06T03:19:59;25.72;46.99
74873;HTU21D;68776;44.762;37.698;2023-08-06T03:21:01;25.76;46.96
74873;HTU21D;68776;44.762;37.698;2023-08-06T03:22:04;25.79;46.93
74873;HTU21D;68776;44.762;37.698;2023-08-06T03:23:07;25.79;46.89
74873;HTU21D;68776;44.762;37.698;2023-08-06T03:24:09;25.83;46.86
74873;HTU21D;68776;44.762;37.698;2023-08-06T03:25:13;25.84;46.84
74873;HTU21D;68776;44.762;37.698;2023-08-06T03:26:18;25.89;46.81
74873;HTU21D;68776;44.762;37.698;2023-08-06T03:27:18;25.92;46.77
74873;HTU21D;68776;44.762;37.698;2023-08-06T03:28:20;25.94;46.76
74873;HTU21D;68776;44.762;37.698;2023-08-06T03:29:21;25.96;46.73
74873;HTU21D;68776;44.762;37.698;2023-08-06T03:30:23;26.01;46.70
74873;HTU21D;68776;44.762;37.698;2023-08-06T03:31:26;26.04;46.67
74873;HTU21D;68776;44.762;37.698;2023-08-06T03:32:27;26.06;46.67
74873;HTU21D;68776;44.762;37.698;2023-08-06T03:33:29;26.10;46.64
74873;HTU21D;68776;44.762;37.698;2023-08-06T03:34:31;26.12;46.62
74873;HTU21D;68776;44.762;37.698;2023-08-06T03:35:31;26.16;46.60
74873;HTU21D;68776;44.762;37.698;2023-08-06T03:36:32;26.20;46.57
74873;HTU21D;68776;44.762;37.698;2023-08-06T03:37:35;26.22;46.54
74873;HTU21D;68776;44.762;37.698;2023-08-06T03:38:36;26.25;46.51
74873;HTU21D;68776;44.762;37.698;2023-08-06T03:39:40;26.30;46.49
74873;HTU21D;68776;44.762;37.698;2023-08-06T03:40:41;26.35;46.46
74873;HTU21D;68776;44.762;37.698;2023-08-06T03:41:41;26.37;46.42
74873;HTU21D;68776;44.762;37.698;2023-08-06T03:42:42;26.40;46.39
74873;HTU21D;68776;44.762;37.698;2023-08-06T03:43:43;26.43;46.36
74873;HTU21D;68776;44.762;37.698;2023-08-06T03:44:49;26.48;46.35
74873;HTU21D;68776;44.762;37.698;2023-08-06T03:45:49;26.52;46.32
74873;HTU21D;68776;44.762;37.698;2023-08-06T03:46:50;26.55;46.30
74873;HTU21D;68776;44.762;37.698;2023-08-06T03:47:51;26.58;46.25
74873;HTU21D;68776;44.762;37.698;2023-08-06T03:48:52;26.64;46.23
74873;HTU21D;68776;44.762;37.698;2023-08-06T03:49:53;26.66;46.19
74873;HTU21D;68776;44.762;37.698;2023-08-06T03:50:56;26.69;46.19
74873;HTU21D;68776;44.762;37.698;2023-08-06T03:51:57;26.72;46.15
74873;HTU21D;68776;44.762;37.698;2023-08-06T03:52:59;26.77;46.12
74873;HTU21D;68776;44.762;37.698;2023-08-06T03:54:02;26.81;46.09
74873;HTU21D;68776;44.762;37.698;2023-08-06T03:55:04;26.85;46.06
74873;HTU21D;68776;44.762;37.698;2023-08-06T03:56:05;26.89;46.02
74873;HTU21D;68776;44.762;37.698;2023-08-06T03:57:06;26.92;45.99
74873;HTU21D;68776;44.762;37.698;2023-08-06T03:58:07;26.98;45.94
74873;HTU21D;68776;44.762;37.698;2023-08-06T03:59:08;27.01;45.91
74873;HTU21D;68776;44.762;37.698;2023-08-06T04:00:09;27.05;45.86
74873;HTU21D;68776;44.762;37.698;2023-08-06T04:01:16;27.10;45.83
74873;HTU21D;68776;44.762;37.698;2023-08-06T04:02:19;27.15;45.80
74873;HTU21D;68776;44.762;37.698;2023-08-06T04:03:20;27.19;45.77
74873;HTU21D;68776;44.762;37.698;2023-08-06T04:04:21;27.23;45.72
74873;HTU21D;68776;44.762;37.698;2023-08-06T04:05:21;27.28;45.68
74873;HTU21D;68776;44.762;37.698;2023-08-06T04:06:22;27.34;45.64
74873;HTU21D;68776;44.762;37.698;2023-08-06T04:07:23;27.39;45.61
74873;HTU21D;68776;44.762;37.698;2023-08-06T04:08:24;27.41;45.57
74873;HTU21D;68776;44.762;37.698;2023-08-06T04:09:24;27.46;45.53
74873;HTU21D;68776;44.762;37.698;2023-08-06T04:10:26;27.51;45.49
74873;HTU21D;68776;44.762;37.698;2023-08-06T04:11:27;27.56;45.46
74873;HTU21D;68776;44.762;37.698;2023-08-06T04:12:27;27.61;45.41
74873;HTU21D;68776;44.762;37.698;2023-08-06T04:13:28;27.65;45.38
74873;HTU21D;68776;44.762;37.698;2023-08-06T04:14:31;27.70;45.35
74873;HTU21D;68776;44.762;37.698;2023-08-06T04:15:33;27.76;45.31
74873;HTU21D;68776;44.762;37.698;2023-08-06T04:16:34;27.80;45.27
74873;HTU21D;68776;44.762;37.698;2023-08-06T04:17:35;27.85;45.24
74873;HTU21D;68776;44.762;37.698;2023-08-06T04:18:36;27.90;45.21
74873;HTU21D;68776;44.762;37.698;2023-08-06T04:19:37;27.94;45.16
74873;HTU21D;68776;44.762;37.698;2023-08-06T04:20:44;27.99;45.12
74873;HTU21D;68776;44.762;37.698;2023-08-06T04:21:46;28.06;45.07
74873;HTU21D;68776;44.762;37.698;2023-08-06T04:22:47;28.10;45.03
74873;HTU21D;68776;44.762;37.698;2023-08-06T04:23:48;28.15;45.00
74873;HTU21D;68776;44.762;37.698;2023-08-06T04:24:49;28.21;44.93
74873;HTU21D;68776;44.762;37.698;2023-08-06T04:25:50;28.29;44.88
74873;HTU21D;68776;44.762;37.698;2023-08-06T04:26:51;28.33;44.83
74873;HTU21D;68776;44.762;37.698;2023-08-06T04:27:52;28.38;44.80
74873;HTU21D;68776;44.762;37.698;2023-08-06T04:28:53;28.44;44.76
74873;HTU21D;68776;44.762;37.698;2023-08-06T04:29:54;28.50;44.73
74873;HTU21D;68776;44.762;37.698;2023-08-06T04:30:56;28.57;44.68
74873;HTU21D;68776;44.762;37.698;2023-08-06T04:31:56;28.61;44.64
74873;HTU21D;68776;44.762;37.698;2023-08-06T04:32:57;28.67;44.60
74873;HTU21D;68776;44.762;37.698;2023-08-06T04:34:00;28.72;44.57
74873;HTU21D;68776;44.762;37.698;2023-08-06T04:35:02;28.76;44.54
74873;HTU21D;68776;44.762;37.698;2023-08-06T04:36:03;28.80;44.52
74873;HTU21D;68776;44.762;37.698;2023-08-06T04:37:04;28.87;44.48
74873;HTU21D;68776;44.762;37.698;2023-08-06T04:38:05;28.92;44.44
74873;HTU21D;68776;44.762;37.698;2023-08-06T04:39:06;28.98;44.40
74873;HTU21D;68776;44.762;37.698;2023-08-06T04:40:06;29.01;44.40
74873;HTU21D;68776;44.762;37.698;2023-08-06T04:41:07;29.06;44.37
74873;HTU21D;68776;44.762;37.698;2023-08-06T04:42:09;29.11;44.35
74873;HTU21D;68776;44.762;37.698;2023-08-06T04:43:10;29.14;44.30
74873;HTU21D;68776;44.762;37.698;2023-08-06T04:44:11;29.18;44.28
74873;HTU21D;68776;44.762;37.698;2023-08-06T04:45:11;29.22;44.28
74873;HTU21D;68776;44.762;37.698;2023-08-06T04:46:12;29.28;44.24
74873;HTU21D;68776;44.762;37.698;2023-08-06T04:47:13;29.33;44.19
74873;HTU21D;68776;44.762;37.698;2023-08-06T04:48:14;29.38;44.16
74873;HTU21D;68776;44.762;37.698;2023-08-06T04:49:15;29.43;44.13
74873;HTU21D;68776;44.762;37.698;2023-08-06T04:50:16;29.47;44.13
74873;HTU21D;68776;44.762;37.698;2023-08-06T04:51:16;29.49;44.13
74873;HTU21D;68776;44.762;37.698;2023-08-06T04:52:17;29.52;44.11
74873;HTU21D;68776;44.762;37.698;2023-08-06T04:53:18;29.56;44.10
74873;HTU21D;68776;44.762;37.698;2023-08-06T04:54:19;29.58;44.09
74873;HTU21D;68776;44.762;37.698;2023-08-06T04:55:19;29.61;44.07
74873;HTU21D;68776;44.762;37.698;2023-08-06T04:56:20;29.66;44.08
74873;HTU21D;68776;44.762;37.698;2023-08-06T04:57:21;29.75;44.43
74873;HTU21D;68776;44.762;37.698;2023-08-06T04:58:22;29.80;44.75
74873;HTU21D;68776;44.762;37.698;2023-08-06T04:59:23;29.87;44.90
74873;HTU21D;68776;44.762;37.698;2023-08-06T05:00:24;29.94;45.00
74873;HTU21D;68776;44.762;37.698;2023-08-06T05:01:25;30.02;45.01
74873;HTU21D;68776;44.762;37.698;2023-08-06T05:02:26;30.10;44.89
74873;HTU21D;68776;44.762;37.698;2023-08-06T05:03:27;30.18;44.80
74873;HTU21D;68776;44.762;37.698;2023-08-06T05:04:28;30.26;44.77
74873;HTU21D;68776;44.762;37.698;2023-08-06T05:05:29;30.33;44.77
74873;HTU21D;68776;44.762;37.698;2023-08-06T05:06:30;30.41;44.77
74873;HTU21D;68776;44.762;37.698;2023-08-06T05:07:31;30.51;44.80
74873;HTU21D;68776;44.762;37.698;2023-08-06T05:08:32;30.60;44.69
74873;HTU21D;68776;44.762;37.698;2023-08-06T05:09:33;30.68;44.57
74873;HTU21D;68776;44.762;37.698;2023-08-06T05:10:34;30.71;44.51
74873;HTU21D;68776;44.762;37.698;2023-08-06T05:11:35;30.78;44.44
74873;HTU21D;68776;44.762;37.698;2023-08-06T05:12:36;30.84;44.38
74873;HTU21D;68776;44.762;37.698;2023-08-06T05:13:37;30.91;44.29
74873;HTU21D;68776;44.762;37.698;2023-08-06T05:14:37;30.96;44.13
74873;HTU21D;68776;44.762;37.698;2023-08-06T05:15:38;31.02;44.01
74873;HTU21D;68776;44.762;37.698;2023-08-06T05:16:42;31.09;43.90
74873;HTU21D;68776;44.762;37.698;2023-08-06T05:17:43;31.12;43.79
74873;HTU21D;68776;44.762;37.698;2023-08-06T05:18:44;31.19;43.70
74873;HTU21D;68776;44.762;37.698;2023-08-06T05:19:44;31.23;43.62
74873;HTU21D;68776;44.762;37.698;2023-08-06T05:20:45;31.28;43.55
74873;HTU21D;68776;44.762;37.698;2023-08-06T05:21:46;31.34;43.46
74873;HTU21D;68776;44.762;37.698;2023-08-06T05:22:47;31.39;43.39
74873;HTU21D;68776;44.762;37.698;2023-08-06T05:23:48;31.43;43.33
74873;HTU21D;68776;44.762;37.698;2023-08-06T05:24:48;31.46;43.27
74873;HTU21D;68776;44.762;37.698;2023-08-06T05:25:49;31.51;43.22
74873;HTU21D;68776;44.762;37.698;2023-08-06T05:26:50;31.56;43.16
74873;HTU21D;68776;44.762;37.698;2023-08-06T05:27:51;31.59;43.13
74873;HTU21D;68776;44.762;37.698;2023-08-06T05:28:52;31.63;43.10
74873;HTU21D;68776;44.762;37.698;2023-08-06T05:29:54;31.69;43.03
74873;HTU21D;68776;44.762;37.698;2023-08-06T05:30:56;31.74;42.95
74873;HTU21D;68776;44.762;37.698;2023-08-06T05:31:56;31.79;42.91
74873;HTU21D;68776;44.762;37.698;2023-08-06T05:32:57;31.82;42.88
74873;HTU21D;68776;44.762;37.698;2023-08-06T05:33:58;31.85;42.84
74873;HTU21D;68776;44.762;37.698;2023-08-06T05:34:58;31.92;42.77
74873;HTU21D;68776;44.762;37.698;2023-08-06T05:35:59;31.97;42.74
74873;HTU21D;68776;44.762;37.698;2023-08-06T05:37:00;32.01;42.68
74873;HTU21D;68776;44.762;37.698;2023-08-06T05:38:01;32.04;42.68
74873;HTU21D;68776;44.762;37.698;2023-08-06T05:39:02;32.09;42.61
74873;HTU21D;68776;44.762;37.698;2023-08-06T05:40:02;32.14;42.55
74873;HTU21D;68776;44.762;37.698;2023-08-06T05:41:04;32.19;42.52
74873;HTU21D;68776;44.762;37.698;2023-08-06T05:42:05;32.28;42.45
74873;HTU21D;68776;44.762;37.698;2023-08-06T05:43:06;32.32;42.39
74873;HTU21D;68776;44.762;37.698;2023-08-06T05:44:07;32.38;42.33
74873;HTU21D;68776;44.762;37.698;2023-08-06T05:45:07;32.44;42.29
74873;HTU21D;68776;44.762;37.698;2023-08-06T05:46:08;32.49;42.23
74873;HTU21D;68776;44.762;37.698;2023-08-06T05:47:09;32.55;42.18
74873;HTU21D;68776;44.762;37.698;2023-08-06T05:48:10;32.62;42.09
74873;HTU21D;68776;44.762;37.698;2023-08-06T05:49:10;32.68;42.06
74873;HTU21D;68776;44.762;37.698;2023-08-06T05:50:13;32.72;42.02
74873;HTU21D;68776;44.762;37.698;2023-08-06T05:51:14;32.78;41.96
74873;HTU21D;68776;44.762;37.698;2023-08-06T05:52:16;32.85;41.91
74873;HTU21D;68776;44.762;37.698;2023-08-06T05:53:17;32.89;41.88
74873;HTU21D;68776;44.762;37.698;2023-08-06T05:54:18;32.92;41.86
74873;HTU21D;68776;44.762;37.698;2023-08-06T05:55:19;32.99;41.83
74873;HTU21D;68776;44.762;37.698;2023-08-06T05:56:20;33.01;41.82
74873;HTU21D;68776;44.762;37.698;2023-08-06T05:57:21;33.05;41.81
74873;HTU21D;68776;44.762;37.698;2023-08-06T05:58:22;33.11;41.78
74873;HTU21D;68776;44.762;37.698;2023-08-06T05:59:24;33.15;41.74
74873;HTU21D;68776;44.762;37.698;2023-08-06T06:00:25;33.23;41.67
74873;HTU21D;68776;44.762;37.698;2023-08-06T06:01:26;33.30;41.55
74873;HTU21D;68776;44.762;37.698;2023-08-06T06:02:27;33.36;41.27
74873;HTU21D;68776;44.762;37.698;2023-08-06T06:03:28;33.41;41.02
74873;HTU21D;68776;44.762;37.698;2023-08-06T06:04:29;33.47;40.80
74873;HTU21D;68776;44.762;37.698;2023-08-06T06:05:30;33.57;40.43
74873;HTU21D;68776;44.762;37.698;2023-08-06T06:06:31;33.65;40.25
74873;HTU21D;68776;44.762;37.698;2023-08-06T06:07:32;33.77;40.14
74873;HTU21D;68776;44.762;37.698;2023-08-06T06:08:33;0.00;39.99
74873;HTU21D;68776;44.762;37.698;2023-08-06T06:09:34;33.99;39.80
74873;HTU21D;68776;44.762;37.698;2023-08-06T06:10:35;34.09;39.54
74873;HTU21D;68776;44.762;37.698;2023-08-06T06:11:36;34.15;39.62
74873;HTU21D;68776;44.762;37.698;2023-08-06T06:12:40;34.17;39.30
74873;HTU21D;68776;44.762;37.698;2023-08-06T06:13:41;34.23;39.07
74873;HTU21D;68776;44.762;37.698;2023-08-06T06:14:42;34.32;39.14
74873;HTU21D;68776;44.762;37.698;2023-08-06T06:15:43;34.40;39.17
74873;HTU21D;68776;44.762;37.698;2023-08-06T06:16:45;34.46;39.19
74873;HTU21D;68776;44.762;37.698;2023-08-06T06:17:46;34.52;39.17
74873;HTU21D;68776;44.762;37.698;2023-08-06T06:18:47;34.59;39.11
74873;HTU21D;68776;44.762;37.698;2023-08-06T06:19:48;34.65;39.01
74873;HTU21D;68776;44.762;37.698;2023-08-06T06:20:49;34.74;38.91
74873;HTU21D;68776;44.762;37.698;2023-08-06T06:21:50;34.80;38.88